Time;durP1;ratioP1;P1;durP2;ratioP2;P2;SDS_P1;SDS_P2;PMS_P1;PMS_P2;Temp;Humidity;BMP_temperature;BMP_pressure;BME280_temperature;BME280_humidity;BME280_pressure;Samples;Min_cycle;Max_cycle;Signal;HPM_P1;HPM_P2
2023/10/29 00:01:58;;;;;;;9.87;5.70;;;9.60;99.90;;;;;;5063400;28;20462;-65
2023/10/29 00:04:23;;;;;;;7.17;6.47;;;9.60;99.90;;;;;;5071579;28;20605;-63
2023/10/29 00:06:49;;;;;;;11.50;5.80;;;9.60;99.90;;;;;;5071903;28;20206;-64
2023/10/29 00:09:14;;;;;;;6.83;6.13;;;9.50;99.90;;;;;;5067305;28;20273;-64
2023/10/29 00:11:40;;;;;;;11.57;6.00;;;9.50;99.90;;;;;;5071543;28;20167;-64
2023/10/29 00:14:06;;;;;;;8.30;6.23;;;9.50;99.90;;;;;;5071700;28;20272;-64
2023/10/29 00:16:31;;;;;;;8.30;5.10;;;9.50;99.90;;;;;;5071695;28;20194;-64
2023/10/29 00:18:57;;;;;;;10.37;5.77;;;9.50;99.90;;;;;;5071559;28;20179;-64
2023/10/29 00:21:23;;;;;;;8.40;5.37;;;9.50;99.90;;;;;;5071248;28;20169;-64
2023/10/29 00:23:48;;;;;;;15.00;6.00;;;9.50;99.90;;;;;;5071495;28;20201;-64
2023/10/29 00:26:14;;;;;;;6.20;4.83;;;9.50;99.90;;;;;;5071128;28;20194;-64
2023/10/29 00:28:40;;;;;;;8.93;5.23;;;9.40;99.90;;;;;;5064179;28;20238;-63
2023/10/29 00:31:05;;;;;;;5.47;4.43;;;9.50;99.90;;;;;;5071313;28;20245;-63
2023/10/29 00:33:31;;;;;;;7.23;4.60;;;9.50;99.90;;;;;;5071179;28;20176;-61
2023/10/29 00:35:57;;;;;;;11.73;5.00;;;9.50;99.90;;;;;;5071044;28;20220;-63
2023/10/29 00:38:24;;;;;;;5.63;4.73;;;9.40;99.90;;;;;;5071167;28;20899;-63
2023/10/29 00:40:50;;;;;;;6.13;3.83;;;9.40;99.90;;;;;;5071136;28;20165;-63
2023/10/29 00:43:15;;;;;;;7.47;4.20;;;9.40;99.90;;;;;;5071064;28;20499;-64
2023/10/29 00:45:51;;;;;;;4.10;3.70;;;9.40;99.90;;;;;;5071343;28;20565;-63
2023/10/29 00:48:17;;;;;;;4.63;3.90;;;9.40;99.90;;;;;;5052419;28;20239;-64
2023/10/29 00:50:43;;;;;;;5.83;4.13;;;9.40;99.90;;;;;;5051229;28;20900;-63
2023/10/29 00:53:09;;;;;;;6.27;4.23;;;9.40;99.90;;;;;;5050943;28;20416;-64
2023/10/29 00:55:35;;;;;;;3.63;3.30;;;9.40;99.90;;;;;;5033060;28;20194;-64
2023/10/29 00:58:01;;;;;;;5.70;4.30;;;9.40;99.90;;;;;;5051268;28;20198;-65
2023/10/29 01:00:27;;;;;;;7.00;4.27;;;9.40;99.90;;;;;;5051143;28;20785;-63
2023/10/29 01:02:53;;;;;;;6.00;5.23;;;9.40;99.90;;;;;;5050920;28;20414;-63
2023/10/29 01:05:18;;;;;;;5.57;4.23;;;9.40;99.90;;;;;;5050686;28;20210;-63
2023/10/29 01:07:44;;;;;;;9.50;4.53;;;9.40;99.90;;;;;;5050950;28;20182;-63
2023/10/29 01:10:10;;;;;;;4.63;4.23;;;9.40;99.90;;;;;;5060390;28;20193;-63
2023/10/29 01:12:37;;;;;;;8.23;5.00;;;9.40;99.90;;;;;;5070950;28;20170;-62
2023/10/29 01:15:04;;;;;;;5.40;4.20;;;9.40;99.90;;;;;;5052810;28;20413;-63
2023/10/29 01:17:30;;;;;;;6.93;5.47;;;9.40;99.90;;;;;;5071706;28;20425;-64
2023/10/29 01:19:56;;;;;;;8.73;5.00;;;9.40;99.90;;;;;;5074985;28;20412;-63
2023/10/29 01:22:22;;;;;;;8.00;5.10;;;9.40;99.90;;;;;;5074803;28;20273;-64
2023/10/29 01:24:48;;;;;;;5.53;4.37;;;9.40;99.90;;;;;;5074635;28;20454;-63
2023/10/29 01:27:14;;;;;;;5.20;4.40;;;9.40;99.90;;;;;;5074734;28;20459;-64
2023/10/29 01:29:39;;;;;;;4.73;3.90;;;9.40;99.90;;;;;;5061706;28;20501;-64
2023/10/29 01:32:05;;;;;;;8.40;4.67;;;9.40;99.90;;;;;;5054815;28;20201;-64
2023/10/29 01:34:31;;;;;;;5.97;4.10;;;9.40;99.90;;;;;;5058625;28;20174;-63
2023/10/29 01:36:57;;;;;;;8.93;4.20;;;9.40;99.90;;;;;;5074601;28;20424;-64
2023/10/29 01:39:22;;;;;;;6.27;4.67;;;9.40;99.90;;;;;;5074482;28;20205;-63
2023/10/29 01:41:48;;;;;;;7.00;4.53;;;9.40;99.90;;;;;;5074454;28;20178;-65
2023/10/29 01:44:13;;;;;;;5.33;3.90;;;9.40;99.90;;;;;;5038732;28;20539;-65
2023/10/29 01:46:39;;;;;;;7.20;4.23;;;9.50;99.90;;;;;;5054755;28;20313;-63
2023/10/29 01:49:09;;;;;;;5.73;3.87;;;9.50;99.90;;;;;;5054479;28;20676;-64
2023/10/29 01:51:35;;;;;;;5.83;4.70;;;9.50;99.90;;;;;;5058476;28;20170;-64
2023/10/29 01:54:00;;;;;;;6.50;3.90;;;9.50;99.90;;;;;;5058070;28;20425;-63
2023/10/29 01:56:26;;;;;;;7.20;3.77;;;9.50;99.90;;;;;;5036012;28;20523;-64
2023/10/29 01:58:52;;;;;;;4.13;3.73;;;9.50;99.90;;;;;;5054075;28;20178;-65
2023/10/29 02:01:17;;;;;;;8.23;4.60;;;9.50;99.90;;;;;;5053881;28;20178;-64
2023/10/29 02:03:43;;;;;;;6.17;4.13;;;9.50;99.90;;;;;;5054165;28;20175;-64
2023/10/29 02:06:18;;;;;;;4.40;4.00;;;9.50;99.90;;;;;;5058721;28;20244;-64
2023/10/29 02:08:44;;;;;;;4.53;3.77;;;9.60;99.90;;;;;;5070960;28;20198;-64
2023/10/29 02:11:10;;;;;;;4.50;3.53;;;9.60;99.90;;;;;;5053886;28;20480;-64
2023/10/29 02:13:35;;;;;;;6.77;3.80;;;9.60;99.90;;;;;;5054076;28;20273;-64
2023/10/29 02:16:03;;;;;;;5.27;3.13;;;9.60;99.90;;;;;;5061535;28;20193;-64
2023/10/29 02:18:29;;;;;;;4.40;3.43;;;9.60;99.90;;;;;;5055876;28;20170;-66
2023/10/29 02:20:55;;;;;;;6.87;4.30;;;9.70;99.90;;;;;;5073963;28;20447;-63
2023/10/29 02:23:20;;;;;;;3.33;2.80;;;9.70;99.90;;;;;;5073485;28;20503;-65
2023/10/29 02:25:46;;;;;;;4.73;4.10;;;9.70;99.90;;;;;;5055688;28;20198;-63
2023/10/29 02:28:11;;;;;;;3.50;3.00;;;9.70;99.90;;;;;;5073590;28;20185;-64
2023/10/29 02:30:37;;;;;;;6.17;3.93;;;9.70;99.90;;;;;;5070647;28;20594;-65
2023/10/29 02:33:03;;;;;;;9.73;3.47;;;9.70;99.90;;;;;;5057643;28;20188;-63
2023/10/29 02:35:29;;;;;;;5.67;3.50;;;9.80;99.90;;;;;;5072716;28;20186;-64
2023/10/29 02:37:54;;;;;;;5.80;3.03;;;9.70;99.90;;;;;;5052333;28;20589;-64
2023/10/29 02:40:20;;;;;;;3.20;2.70;;;9.80;99.90;;;;;;5069066;28;20418;-64
2023/10/29 02:42:46;;;;;;;4.57;3.50;;;9.70;99.90;;;;;;5059464;28;20167;-65
2023/10/29 02:45:11;;;;;;;4.13;3.40;;;9.80;99.90;;;;;;5073123;28;20192;-65
2023/10/29 02:47:37;;;;;;;5.33;3.30;;;9.80;99.90;;;;;;5073148;28;20478;-65
2023/10/29 02:50:03;;;;;;;8.30;2.73;;;9.80;99.90;;;;;;5065570;28;20683;-65
2023/10/29 02:52:29;;;;;;;5.60;3.67;;;9.80;99.90;;;;;;5064490;28;20167;-65
2023/10/29 02:54:56;;;;;;;5.50;3.00;;;9.90;99.90;;;;;;5073375;28;20417;-65
2023/10/29 02:57:25;;;;;;;10.10;4.37;;;9.80;99.90;;;;;;5064659;28;20186;-65
2023/10/29 02:59:51;;;;;;;4.43;3.20;;;9.80;99.90;;;;;;5041290;28;20794;-64
2023/10/29 03:02:16;;;;;;;5.27;3.90;;;9.80;99.90;;;;;;5041232;28;20399;-66
2023/10/29 03:04:42;;;;;;;4.50;3.90;;;9.80;99.90;;;;;;5050727;28;20550;-64
2023/10/29 03:07:08;;;;;;;6.80;4.30;;;9.80;99.90;;;;;;5047847;28;20196;-64
2023/10/29 03:09:34;;;;;;;5.10;2.80;;;9.80;99.90;;;;;;5046448;28;20663;-66
2023/10/29 03:12:00;;;;;;;4.40;3.50;;;9.80;99.90;;;;;;5046866;28;20411;-65
2023/10/29 03:14:25;;;;;;;7.37;4.20;;;9.80;99.90;;;;;;5051833;28;20178;-64
2023/10/29 03:16:51;;;;;;;6.00;3.77;;;9.90;99.90;;;;;;5042709;28;20282;-66
2023/10/29 03:19:16;;;;;;;5.30;4.23;;;9.90;99.90;;;;;;5037351;28;20579;-65
2023/10/29 03:21:42;;;;;;;7.27;4.20;;;9.80;99.90;;;;;;5038562;28;20262;-65
2023/10/29 03:24:08;;;;;;;6.10;3.33;;;9.80;99.90;;;;;;5040660;28;20176;-63
2023/10/29 03:26:33;;;;;;;6.30;3.67;;;9.80;99.90;;;;;;5054532;28;20214;-65
2023/10/29 03:28:59;;;;;;;5.23;3.60;;;9.80;99.90;;;;;;5049620;28;20732;-65
2023/10/29 03:31:24;;;;;;;6.00;3.80;;;9.80;99.90;;;;;;5049778;28;20182;-64
2023/10/29 03:33:50;;;;;;;8.80;4.53;;;9.80;99.90;;;;;;5047449;28;20171;-64
2023/10/29 03:36:15;;;;;;;5.07;3.40;;;9.80;99.90;;;;;;5039944;28;20245;-64
2023/10/29 03:38:41;;;;;;;7.57;3.80;;;9.80;99.90;;;;;;5040043;28;20186;-63
2023/10/29 03:41:17;;;;;;;5.60;3.73;;;9.80;99.90;;;;;;5041666;28;20214;-62
2023/10/29 03:43:43;;;;;;;5.63;3.27;;;9.80;99.90;;;;;;5049927;28;20185;-64
2023/10/29 03:46:10;;;;;;;5.20;3.90;;;9.90;99.90;;;;;;5049669;28;20944;-65
2023/10/29 03:48:35;;;;;;;4.67;3.70;;;9.80;99.90;;;;;;5048612;28;20238;-64
2023/10/29 03:51:02;;;;;;;9.13;4.80;;;9.90;99.90;;;;;;5036010;28;20410;-65
2023/10/29 03:53:27;;;;;;;6.83;4.77;;;9.80;99.90;;;;;;5051673;28;20202;-64
2023/10/29 03:55:53;;;;;;;5.07;3.73;;;9.80;99.90;;;;;;5044052;28;20966;-64
2023/10/29 03:58:19;;;;;;;4.37;3.97;;;9.80;99.90;;;;;;5049525;28;20283;-64
2023/10/29 04:00:51;;;;;;;4.73;3.77;;;9.80;99.90;;;;;;5048743;28;20643;-63
2023/10/29 04:03:16;;;;;;;6.50;3.97;;;9.80;99.90;;;;;;5050485;28;20666;-64
2023/10/29 04:05:42;;;;;;;3.50;3.20;;;9.80;99.90;;;;;;5040648;28;20458;-63
2023/10/29 04:08:07;;;;;;;5.17;4.27;;;9.80;99.90;;;;;;5043477;28;20171;-63
2023/10/29 04:10:33;;;;;;;5.90;3.80;;;9.80;99.90;;;;;;5045390;28;20194;-65
2023/10/29 04:12:58;;;;;;;8.53;4.40;;;9.80;99.90;;;;;;5050615;28;20749;-65
2023/10/29 04:15:24;;;;;;;9.83;4.07;;;9.80;99.90;;;;;;5050257;28;20286;-64
2023/10/29 04:17:50;;;;;;;3.00;2.70;;;9.80;99.90;;;;;;5050549;28;20175;-64
2023/10/29 04:20:16;;;;;;;8.93;3.57;;;9.80;99.90;;;;;;5050320;28;20269;-64
2023/10/29 04:22:42;;;;;;;6.77;4.07;;;9.80;99.90;;;;;;5050481;28;20588;-64
2023/10/29 04:25:08;;;;;;;5.60;3.70;;;9.80;99.90;;;;;;5050284;28;20896;-65
2023/10/29 04:27:33;;;;;;;5.10;4.43;;;9.90;99.90;;;;;;5050061;28;20428;-64
2023/10/29 04:29:59;;;;;;;5.03;3.53;;;9.90;99.90;;;;;;5047072;28;20294;-66
2023/10/29 04:32:25;;;;;;;6.70;4.00;;;9.90;99.90;;;;;;5030695;28;20171;-66
2023/10/29 04:34:51;;;;;;;4.30;3.10;;;9.90;99.90;;;;;;5048716;28;20175;-65
2023/10/29 04:37:16;;;;;;;4.20;3.20;;;9.90;99.90;;;;;;5047389;28;20181;-64
2023/10/29 04:39:46;;;;;;;4.67;3.17;;;10.00;99.90;;;;;;5050205;28;20258;-62
2023/10/29 04:42:11;;;;;;;4.13;2.60;;;9.90;99.90;;;;;;5050387;28;20652;-64
2023/10/29 04:44:37;;;;;;;5.60;3.30;;;10.00;99.90;;;;;;5050172;28;20417;-64
2023/10/29 04:47:03;;;;;;;6.00;4.00;;;10.00;99.90;;;;;;5050204;28;20600;-65
2023/10/29 04:49:29;;;;;;;5.03;3.63;;;10.00;99.90;;;;;;5049754;28;20214;-64
2023/10/29 04:51:55;;;;;;;6.20;4.10;;;10.00;99.90;;;;;;5050263;28;20414;-65
2023/10/29 04:54:21;;;;;;;4.50;3.27;;;10.10;99.90;;;;;;5054315;28;20424;-64
2023/10/29 04:56:46;;;;;;;3.80;3.00;;;10.00;99.90;;;;;;5052537;28;20205;-64
2023/10/29 04:59:13;;;;;;;3.87;3.07;;;10.00;99.90;;;;;;5051909;28;20190;-66
2023/10/29 05:01:38;;;;;;;7.03;4.03;;;10.10;99.90;;;;;;5055174;28;20182;-63
2023/10/29 05:04:04;;;;;;;5.20;3.13;;;10.00;99.90;;;;;;5054925;28;20768;-65
2023/10/29 05:06:30;;;;;;;4.40;3.47;;;10.00;99.90;;;;;;5055075;28;20210;-65
2023/10/29 05:08:56;;;;;;;5.73;3.70;;;10.00;99.90;;;;;;5054712;28;20191;-64
2023/10/29 05:11:22;;;;;;;6.00;3.47;;;10.00;99.90;;;;;;5054779;28;20409;-64
2023/10/29 05:13:48;;;;;;;4.10;3.70;;;10.10;99.90;;;;;;5051678;28;20321;-65
2023/10/29 05:16:14;;;;;;;5.60;3.50;;;10.10;99.90;;;;;;5050806;28;20519;-65
2023/10/29 05:18:39;;;;;;;4.67;3.23;;;10.00;99.90;;;;;;5054604;28;20167;-65
2023/10/29 05:21:07;;;;;;;6.93;3.83;;;10.10;99.90;;;;;;5065725;28;20440;-65
2023/10/29 05:23:34;;;;;;;5.80;3.50;;;10.10;99.90;;;;;;5054411;28;20217;-65
2023/10/29 05:25:59;;;;;;;4.33;2.83;;;10.10;99.90;;;;;;5053246;28;20440;-65
2023/10/29 05:28:26;;;;;;;5.07;3.47;;;10.10;99.90;;;;;;5054523;28;20417;-65
2023/10/29 05:30:52;;;;;;;4.20;3.20;;;10.10;99.90;;;;;;5054445;28;20612;-65
2023/10/29 05:33:18;;;;;;;7.20;3.83;;;10.20;99.90;;;;;;5054523;28;20413;-65
2023/10/29 05:35:43;;;;;;;5.00;3.13;;;10.20;99.90;;;;;;5054208;28;20433;-65
2023/10/29 05:38:09;;;;;;;5.50;3.30;;;10.20;99.90;;;;;;5054526;28;20658;-65
2023/10/29 05:40:35;;;;;;;4.03;3.57;;;10.30;99.90;;;;;;5054048;28;20187;-65
2023/10/29 05:43:00;;;;;;;4.60;2.70;;;10.30;99.90;;;;;;5053730;28;20179;-64
2023/10/29 05:45:27;;;;;;;4.53;3.20;;;10.30;99.90;;;;;;5050389;28;20573;-64
2023/10/29 05:47:52;;;;;;;4.57;3.07;;;10.40;99.90;;;;;;5052686;28;20209;-64
2023/10/29 05:50:18;;;;;;;5.57;2.87;;;10.40;99.90;;;;;;5054020;28;20495;-64
2023/10/29 05:52:45;;;;;;;3.83;2.93;;;10.40;99.90;;;;;;5054273;28;20273;-64
2023/10/29 05:55:11;;;;;;;2.87;2.67;;;10.40;99.90;;;;;;5053396;28;20236;-64
2023/10/29 05:57:37;;;;;;;3.50;2.27;;;10.40;99.90;;;;;;5054020;28;20548;-64
2023/10/29 06:00:04;;;;;;;6.90;2.60;;;10.40;99.90;;;;;;5053927;28;20167;-64
2023/10/29 06:02:29;;;;;;;4.00;2.53;;;10.50;99.90;;;;;;5050778;28;20305;-64
2023/10/29 06:04:55;;;;;;;3.30;2.70;;;10.50;99.90;;;;;;5035546;28;20917;-64
2023/10/29 06:07:21;;;;;;;4.63;2.50;;;10.60;99.90;;;;;;5053418;28;20273;-64
2023/10/29 06:09:48;;;;;;;4.53;2.80;;;10.60;99.90;;;;;;5053688;28;20550;-64
2023/10/29 06:12:13;;;;;;;4.27;2.87;;;10.60;99.90;;;;;;5053554;28;20182;-66
2023/10/29 06:14:39;;;;;;;5.30;2.80;;;10.60;99.90;;;;;;5053702;28;20414;-64
2023/10/29 06:17:05;;;;;;;8.93;2.93;;;10.60;99.90;;;;;;5052748;28;20654;-65
2023/10/29 06:19:32;;;;;;;4.30;2.40;;;10.60;99.90;;;;;;5051540;28;20542;-64
2023/10/29 06:21:58;;;;;;;4.10;2.67;;;10.60;99.90;;;;;;5053553;28;20163;-65
2023/10/29 06:24:24;;;;;;;10.70;3.40;;;10.70;99.90;;;;;;5053679;28;20425;-65
2023/10/29 06:26:49;;;;;;;2.53;2.33;;;10.70;99.90;;;;;;5053640;28;20282;-64
2023/10/29 06:29:15;;;;;;;4.10;2.80;;;10.70;99.90;;;;;;5053289;28;20198;-65
2023/10/29 06:31:41;;;;;;;4.67;2.50;;;10.70;99.90;;;;;;5052745;28;20179;-65
2023/10/29 06:34:06;;;;;;;4.07;2.63;;;10.70;99.90;;;;;;5053224;28;20171;-65
2023/10/29 06:36:32;;;;;;;6.07;3.20;;;10.70;99.90;;;;;;5052052;28;20183;-65
2023/10/29 06:38:58;;;;;;;2.70;2.50;;;10.70;99.90;;;;;;5053158;28;20634;-65
2023/10/29 06:41:23;;;;;;;2.30;2.07;;;10.80;99.90;;;;;;5053073;28;20619;-65
2023/10/29 06:43:49;;;;;;;5.80;3.70;;;10.80;99.90;;;;;;5053124;28;20417;-65
2023/10/29 06:46:18;;;;;;;4.13;2.40;;;10.80;99.90;;;;;;5052885;28;20210;-63
2023/10/29 06:48:43;;;;;;;4.27;2.70;;;10.80;99.90;;;;;;5052972;28;20256;-64
2023/10/29 06:51:10;;;;;;;6.20;3.03;;;10.80;99.90;;;;;;5052694;28;20516;-64
2023/10/29 06:53:36;;;;;;;2.97;2.70;;;10.90;99.90;;;;;;5053896;28;20191;-63
2023/10/29 06:56:04;;;;;;;2.80;2.40;;;10.90;99.90;;;;;;5058860;28;20432;-64
2023/10/29 06:58:30;;;;;;;3.47;2.40;;;10.90;99.90;;;;;;5073059;28;20419;-63
2023/10/29 07:01:01;;;;;;;3.30;2.63;;;10.90;99.90;;;;;;5065518;28;20409;-64
2023/10/29 07:03:27;;;;;;;4.90;2.73;;;10.90;99.90;;;;;;5052670;28;20406;-64
2023/10/29 07:05:53;;;;;;;4.10;3.00;;;10.90;99.90;;;;;;5051971;28;20453;-64
2023/10/29 07:08:19;;;;;;;4.23;2.80;;;10.90;99.90;;;;;;5051174;28;20179;-63
2023/10/29 07:10:46;;;;;;;5.20;2.50;;;10.90;99.90;;;;;;5050340;28;20549;-64
2023/10/29 07:13:12;;;;;;;8.43;2.90;;;11.00;99.90;;;;;;5052618;28;20481;-64
2023/10/29 07:15:40;;;;;;;6.17;3.27;;;11.00;99.90;;;;;;5051047;28;20441;-64
2023/10/29 07:18:06;;;;;;;6.53;2.40;;;11.00;99.90;;;;;;5052848;28;20179;-64
2023/10/29 07:20:31;;;;;;;3.33;2.13;;;11.00;99.90;;;;;;5046329;28;20773;-64
2023/10/29 07:22:57;;;;;;;6.33;2.63;;;11.10;99.90;;;;;;5060214;28;20183;-63
2023/10/29 07:25:23;;;;;;;3.00;2.50;;;11.00;99.90;;;;;;5051984;28;20669;-66
2023/10/29 07:27:48;;;;;;;2.50;2.30;;;11.10;99.90;;;;;;5049647;28;20186;-66
2023/10/29 07:30:14;;;;;;;3.43;2.03;;;11.10;99.90;;;;;;5052129;28;20246;-66
2023/10/29 07:32:40;;;;;;;4.90;2.90;;;11.10;99.90;;;;;;5052254;28;20183;-64
2023/10/29 07:35:06;;;;;;;4.00;2.50;;;11.10;99.90;;;;;;5052162;28;20182;-64
2023/10/29 07:37:31;;;;;;;2.67;2.47;;;11.10;99.90;;;;;;5052070;28;20309;-64
2023/10/29 07:39:57;;;;;;;4.50;2.03;;;11.10;99.90;;;;;;5052314;28;20794;-64
2023/10/29 07:42:24;;;;;;;2.40;2.00;;;11.10;99.90;;;;;;5052495;28;20196;-64
2023/10/29 07:44:50;;;;;;;3.33;2.70;;;11.10;99.90;;;;;;5051246;28;20510;-64
2023/10/29 07:47:15;;;;;;;3.77;3.10;;;11.10;99.90;;;;;;5052087;28;20462;-64
2023/10/29 07:49:42;;;;;;;4.10;2.40;;;11.10;99.90;;;;;;5047297;28;20222;-64
2023/10/29 07:52:07;;;;;;;3.43;2.83;;;11.10;99.90;;;;;;5053621;28;20178;-65
2023/10/29 07:54:33;;;;;;;3.13;2.50;;;11.10;99.90;;;;;;5052186;28;20785;-64
2023/10/29 07:57:00;;;;;;;8.13;3.03;;;11.10;99.90;;;;;;5052076;28;20202;-65
2023/10/29 07:59:25;;;;;;;1.97;1.87;;;11.10;99.90;;;;;;5051996;28;20183;-65
2023/10/29 08:01:51;;;;;;;3.30;2.17;;;11.10;99.90;;;;;;5051452;28;20524;-65
2023/10/29 08:04:16;;;;;;;2.67;2.47;;;11.10;99.90;;;;;;5052036;28;20755;-64
2023/10/29 08:06:43;;;;;;;5.33;2.57;;;11.10;99.90;;;;;;5048339;28;20215;-64
2023/10/29 08:09:09;;;;;;;2.87;1.90;;;11.00;99.90;;;;;;5061558;28;20282;-65
2023/10/29 08:11:35;;;;;;;4.30;2.27;;;11.00;99.90;;;;;;5049323;28;21024;-63
2023/10/29 08:14:01;;;;;;;3.73;2.17;;;11.00;99.90;;;;;;5072579;28;20546;-61
2023/10/29 08:16:27;;;;;;;2.90;2.20;;;11.00;99.90;;;;;;5053888;28;20444;-65
2023/10/29 08:18:53;;;;;;;5.70;3.27;;;11.00;99.90;;;;;;5071982;28;21415;-65
2023/10/29 08:21:18;;;;;;;3.87;3.07;;;11.00;99.90;;;;;;5071741;28;20181;-66
2023/10/29 08:23:44;;;;;;;3.77;2.60;;;11.10;99.90;;;;;;5056614;28;20234;-64
2023/10/29 08:26:09;;;;;;;3.90;2.63;;;11.10;99.90;;;;;;5056171;28;20195;-65
2023/10/29 08:28:39;;;;;;;3.73;3.43;;;11.10;99.90;;;;;;5051047;28;20704;-65
2023/10/29 08:31:14;;;;;;;6.30;2.43;;;11.10;99.90;;;;;;5071482;28;20170;-65
2023/10/29 08:33:44;;;;;;;5.03;2.60;;;11.10;99.90;;;;;;5071786;28;20469;-64
2023/10/29 08:36:10;;;;;;;4.60;2.70;;;11.10;99.90;;;;;;5071741;28;20729;-65
2023/10/29 08:38:36;;;;;;;4.77;2.77;;;11.20;99.90;;;;;;5071431;28;20427;-65
2023/10/29 08:41:12;;;;;;;5.10;2.13;;;11.20;99.90;;;;;;5052593;28;20422;-66
2023/10/29 08:43:41;;;;;;;6.73;2.93;;;11.20;99.90;;;;;;5067726;28;20404;-66
2023/10/29 08:46:09;;;;;;;3.87;2.67;;;11.20;99.90;;;;;;5064588;28;20426;-66
2023/10/29 08:48:40;;;;;;;5.13;2.97;;;11.30;99.90;;;;;;5051138;28;20492;-66
2023/10/29 08:51:07;;;;;;;4.37;2.87;;;11.30;99.90;;;;;;5051397;28;20410;-67
2023/10/29 08:53:35;;;;;;;7.60;2.90;;;11.30;99.90;;;;;;5051304;28;20907;-66
2023/10/29 08:56:05;;;;;;;3.20;2.87;;;11.30;99.90;;;;;;5051165;28;20486;-65
2023/10/29 08:58:33;;;;;;;3.90;2.80;;;11.40;99.90;;;;;;5043637;28;20422;-64
2023/10/29 09:00:58;;;;;;;5.27;2.77;;;11.50;99.90;;;;;;5071518;28;20432;-65
2023/10/29 09:03:26;;;;;;;2.80;2.53;;;11.50;99.90;;;;;;5071257;28;20845;-66
2023/10/29 09:05:51;;;;;;;3.90;2.63;;;11.70;99.90;;;;;;5071085;28;20210;-66
2023/10/29 09:08:22;;;;;;;4.00;2.23;;;11.70;99.90;;;;;;5071189;28;20960;-66
2023/10/29 09:10:48;;;;;;;7.20;2.40;;;11.80;99.90;;;;;;5071355;28;20185;-66
2023/10/29 09:13:18;;;;;;;3.93;2.57;;;11.80;99.90;;;;;;5071028;28;20405;-66
2023/10/29 09:15:48;;;;;;;4.83;2.77;;;11.90;99.90;;;;;;5071078;28;20946;-66
2023/10/29 09:18:16;;;;;;;7.93;2.37;;;12.00;99.90;;;;;;5071194;28;20565;-66
2023/10/29 09:20:46;;;;;;;2.20;1.90;;;12.10;99.90;;;;;;5071102;28;20428;-66
2023/10/29 09:23:15;;;;;;;3.63;2.17;;;12.10;99.90;;;;;;5071144;28;20405;-66
2023/10/29 09:25:47;;;;;;;3.00;2.70;;;12.10;99.90;;;;;;5071126;28;20441;-66
2023/10/29 09:28:14;;;;;;;3.20;2.33;;;12.10;99.90;;;;;;5047872;28;20425;-66
2023/10/29 09:30:40;;;;;;;4.20;2.60;;;12.10;99.90;;;;;;5049286;28;20453;-65
2023/10/29 09:33:08;;;;;;;4.83;2.70;;;12.10;99.90;;;;;;5051360;28;20810;-65
2023/10/29 09:35:40;;;;;;;2.60;2.40;;;12.20;99.90;;;;;;5050437;28;20438;-66
2023/10/29 09:38:06;;;;;;;4.13;2.13;;;12.30;99.90;;;;;;5071350;28;20423;-66
2023/10/29 09:40:32;;;;;;;6.10;2.47;;;12.30;99.90;;;;;;5074752;28;20432;-66
2023/10/29 09:43:04;;;;;;;2.40;2.03;;;12.40;99.90;;;;;;5056757;28;20413;-64
2023/10/29 09:45:35;;;;;;;2.23;1.60;;;12.50;99.90;;;;;;5074790;28;20486;-64
2023/10/29 09:48:01;;;;;;;2.97;1.87;;;12.50;99.90;;;;;;5062720;28;20417;-64
2023/10/29 09:50:28;;;;;;;2.20;2.00;;;12.60;99.90;;;;;;5055249;28;20456;-63
2023/10/29 09:52:54;;;;;;;3.67;1.90;;;12.60;99.90;;;;;;5054378;28;20409;-64
2023/10/29 09:55:21;;;;;;;3.23;2.20;;;12.60;99.90;;;;;;5054422;28;20444;-63
2023/10/29 09:57:47;;;;;;;8.10;2.63;;;12.50;99.90;;;;;;5056685;28;20414;-63
2023/10/29 10:00:16;;;;;;;2.20;1.80;;;12.60;99.90;;;;;;5065304;28;20904;-64
2023/10/29 10:02:56;;;;;;;3.00;2.17;;;12.60;99.90;;;;;;5062531;28;20923;-64
2023/10/29 10:05:23;;;;;;;3.67;2.37;;;12.60;99.90;;;;;;5059409;28;20565;-64
2023/10/29 10:07:51;;;;;;;2.47;2.27;;;12.60;99.90;;;;;;5055152;28;20428;-63
2023/10/29 10:10:20;;;;;;;6.10;3.20;;;12.60;99.90;;;;;;5047640;28;20461;-65
2023/10/29 10:12:51;;;;;;;3.00;2.23;;;12.50;99.90;;;;;;5051819;28;20423;-65
2023/10/29 10:15:20;;;;;;;3.73;2.10;;;12.50;99.90;;;;;;5053562;28;20425;-64
2023/10/29 10:17:57;;;;;;;3.37;2.77;;;12.60;99.90;;;;;;5062733;28;20409;-64
2023/10/29 10:20:23;;;;;;;4.30;2.40;;;12.60;99.90;;;;;;5074000;28;20420;-63
2023/10/29 10:23:11;;;;;;;4.37;2.17;;;12.60;99.90;;;;;;5073958;28;20474;-64
2023/10/29 10:25:37;;;;;;;3.03;2.63;;;12.60;99.90;;;;;;5057092;28;20437;-64
2023/10/29 10:28:05;;;;;;;2.50;1.70;;;12.60;99.90;;;;;;5054676;28;20449;-64
2023/10/29 10:30:40;;;;;;;3.40;2.10;;;12.60;99.90;;;;;;5054674;28;20530;-64
2023/10/29 10:33:12;;;;;;;2.73;2.30;;;12.60;99.90;;;;;;5049536;28;20471;-63
2023/10/29 10:35:40;;;;;;;2.37;2.17;;;12.60;99.90;;;;;;5044397;28;20428;-65
2023/10/29 10:38:06;;;;;;;3.73;1.77;;;12.70;99.90;;;;;;5054084;28;20742;-66
2023/10/29 10:40:32;;;;;;;2.10;1.77;;;12.80;99.90;;;;;;5046674;28;20535;-63
2023/10/29 10:42:57;;;;;;;2.70;2.00;;;12.80;99.90;;;;;;5039938;28;20927;-64
2023/10/29 10:45:27;;;;;;;2.27;1.40;;;12.80;99.90;;;;;;5059856;28;20565;-63
2023/10/29 10:48:01;;;;;;;3.93;1.80;;;12.90;99.90;;;;;;5070396;28;20214;-64
2023/10/29 10:50:27;;;;;;;2.40;1.93;;;12.90;99.90;;;;;;5053786;28;20488;-65
2023/10/29 10:52:54;;;;;;;3.20;2.47;;;12.90;99.90;;;;;;5061735;28;20424;-64
2023/10/29 10:55:22;;;;;;;3.13;1.20;;;12.90;99.90;;;;;;5053214;28;20935;-65
2023/10/29 10:57:51;;;;;;;1.83;1.60;;;12.90;99.90;;;;;;5053219;28;20916;-64
2023/10/29 11:00:18;;;;;;;2.57;1.93;;;13.00;99.90;;;;;;5052905;28;20442;-63
2023/10/29 11:02:45;;;;;;;3.70;1.87;;;13.10;99.90;;;;;;5062509;28;20793;-63
2023/10/29 11:05:13;;;;;;;3.10;2.00;;;13.10;99.90;;;;;;5072773;28;20445;-66
2023/10/29 11:07:44;;;;;;;2.63;1.40;;;13.10;99.90;;;;;;5055466;28;20448;-63
2023/10/29 11:10:14;;;;;;;1.50;1.40;;;13.20;99.90;;;;;;5068415;28;20453;-63
2023/10/29 11:12:40;;;;;;;4.27;1.80;;;13.30;99.90;;;;;;5072806;28;20503;-63
2023/10/29 11:15:17;;;;;;;4.47;2.07;;;13.40;99.90;;;;;;5052772;28;20421;-63
2023/10/29 11:18:00;;;;;;;2.10;1.43;;;13.60;99.90;;;;;;5050415;28;20466;-64
2023/10/29 11:20:56;;;;;;;4.30;1.77;;;13.80;99.90;;;;;;5035192;28;20452;-65
2023/10/29 11:23:24;;;;;;;4.53;1.53;;;13.90;99.90;;;;;;5055255;28;20410;-66
2023/10/29 11:25:50;;;;;;;1.83;1.67;;;14.00;99.90;;;;;;5070088;28;20445;-66
2023/10/29 11:28:25;;;;;;;2.73;1.53;;;14.00;99.90;;;;;;5072704;28;20406;-64
2023/10/29 11:31:13;;;;;;;1.83;1.50;;;14.00;99.90;;;;;;5073132;28;20816;-67
2023/10/29 11:33:40;;;;;;;2.30;1.17;;;14.10;99.90;;;;;;5055320;28;20921;-66
2023/10/29 11:36:34;;;;;;;1.73;1.27;;;14.00;99.90;;;;;;5052871;28;20538;-67
2023/10/29 11:39:14;;;;;;;1.83;1.53;;;14.10;99.90;;;;;;5046290;28;20418;-68
2023/10/29 11:41:41;;;;;;;2.70;1.73;;;14.20;99.90;;;;;;5072673;28;20428;-64
2023/10/29 11:44:25;;;;;;;5.57;2.10;;;14.20;99.90;;;;;;5073596;28;20468;-64
2023/10/29 11:47:03;;;;;;;2.27;1.57;;;14.30;99.90;;;;;;5063436;28;20519;-66
2023/10/29 11:49:41;;;;;;;5.10;1.67;;;14.30;99.90;;;;;;5053171;28;20869;-67
2023/10/29 11:52:07;;;;;;;2.10;1.10;;;14.40;99.90;;;;;;5052330;28;20439;-63
2023/10/29 11:54:37;;;;;;;1.60;1.40;;;14.40;99.90;;;;;;5052195;28;20423;-65
2023/10/29 11:57:05;;;;;;;2.67;1.70;;;14.40;99.90;;;;;;5052294;28;20195;-64
2023/10/29 11:59:31;;;;;;;4.93;2.20;;;14.40;99.90;;;;;;5052068;28;20430;-64
2023/10/29 12:01:57;;;;;;;4.13;2.07;;;14.40;99.90;;;;;;5051664;28;20493;-62
2023/10/29 12:04:31;;;;;;;3.77;1.80;;;14.40;99.90;;;;;;5052023;28;20257;-64
2023/10/29 12:06:57;;;;;;;2.60;1.67;;;14.40;99.90;;;;;;5052282;28;20196;-63
2023/10/29 12:09:25;;;;;;;2.30;1.50;;;14.50;99.90;;;;;;5054638;28;20459;-64
2023/10/29 12:11:53;;;;;;;2.50;1.83;;;14.40;99.90;;;;;;5051932;28;20240;-64
2023/10/29 12:14:43;;;;;;;7.30;1.80;;;14.50;99.90;;;;;;5052068;28;20412;-63
2023/10/29 12:17:10;;;;;;;10.43;1.70;;;14.60;99.90;;;;;;5052054;28;20434;-66
2023/10/29 12:19:44;;;;;;;5.33;1.80;;;14.80;99.90;;;;;;5052360;28;20486;-63
2023/10/29 12:22:20;;;;;;;4.43;3.27;;;15.00;99.90;;;;;;5064755;28;20774;-63
2023/10/29 12:24:53;;;;;;;6.30;2.17;;;15.10;99.90;;;;;;5071792;28;20794;-63
2023/10/29 12:27:21;;;;;;;2.27;1.73;;;15.10;99.90;;;;;;5071841;28;20419;-65
2023/10/29 12:29:47;;;;;;;2.67;1.60;;;15.00;99.90;;;;;;5071754;28;20454;-64
2023/10/29 12:32:22;;;;;;;3.87;1.47;;;15.00;99.90;;;;;;5053456;28;20439;-64
2023/10/29 12:34:53;;;;;;;2.33;1.80;;;15.10;99.90;;;;;;5071851;28;20399;-65
2023/10/29 12:37:23;;;;;;;2.70;1.93;;;15.10;99.90;;;;;;5071502;28;20401;-63
2023/10/29 12:39:51;;;;;;;2.67;1.67;;;15.10;99.90;;;;;;5071492;28;20398;-65
2023/10/29 12:42:18;;;;;;;3.00;1.97;;;15.20;99.90;;;;;;5071431;28;20469;-65
2023/10/29 12:44:56;;;;;;;3.00;2.23;;;15.20;99.90;;;;;;5071472;28;20899;-65
2023/10/29 12:47:22;;;;;;;3.70;1.80;;;15.10;99.90;;;;;;5053083;28;20412;-64
2023/10/29 12:49:59;;;;;;;2.47;1.87;;;15.10;99.90;;;;;;5051397;28;20452;-65
2023/10/29 12:52:26;;;;;;;3.63;1.20;;;15.10;99.90;;;;;;5051438;28;20415;-65